Time;durP1;ratioP1;P1;durP2;ratioP2;P2;SDS_P1;SDS_P2;PMS_P1;PMS_P2;Temp;Humidity;BMP_temperature;BMP_pressure;BME280_temperature;BME280_humidity;BME280_pressure;Samples;Min_cycle;Max_cycle;Signal;HPM_P1;HPM_P2
2024/02/06 00:01:21;;;;;;;15.07;13.25;;;;;;;7.66;100.00;100546.06;10094388;28;20109;-73
2024/02/06 00:06:18;;;;;;;12.63;11.38;;;;;;;7.75;100.00;100539.66;10097567;28;20101;-74
2024/02/06 00:11:14;;;;;;;15.00;12.63;;;;;;;7.78;100.00;100560.81;10107998;28;20526;-73
2024/02/06 00:16:12;;;;;;;13.90;12.43;;;;;;;7.79;100.00;100559.69;10100440;28;20057;-74
2024/02/06 00:21:09;;;;;;;14.27;12.82;;;;;;;7.83;100.00;100580.88;10103103;28;20054;-75
2024/02/06 00:26:05;;;;;;;15.45;12.50;;;;;;;7.88;100.00;100569.88;10108066;28;20098;-75
2024/02/06 00:31:02;;;;;;;17.15;13.52;;;;;;;7.82;100.00;100562.91;10097689;28;20081;-77
2024/02/06 00:36:01;;;;;;;14.57;12.50;;;;;;;7.85;100.00;100562.31;10098180;28;20122;-76
2024/02/06 00:40:57;;;;;;;21.13;12.05;;;;;;;7.93;100.00;100561.59;10106792;28;20046;-76
2024/02/06 00:45:54;;;;;;;16.73;12.73;;;;;;;7.90;100.00;100559.50;10099592;28;20039;-76
2024/02/06 00:50:50;;;;;;;17.73;12.30;;;;;;;7.91;100.00;100550.19;10105510;28;20043;-76
2024/02/06 00:55:47;;;;;;;13.13;11.75;;;;;;;7.93;100.00;100559.69;10111469;28;20038;-77
2024/02/06 01:00:44;;;;;;;15.88;12.00;;;;;;;7.92;100.00;100560.00;10108386;28;20049;-77
2024/02/06 01:05:40;;;;;;;13.23;11.93;;;;;;;8.00;100.00;100548.38;10093503;28;20043;-73
2024/02/06 01:10:37;;;;;;;13.57;12.18;;;;;;;8.02;100.00;100551.59;10091540;28;20054;-75
2024/02/06 01:15:34;;;;;;;20.27;13.05;;;;;;;8.03;100.00;100558.69;10100511;28;20042;-76
2024/02/06 01:20:30;;;;;;;14.70;11.77;;;;;;;8.04;100.00;100554.84;10102839;28;20059;-76
2024/02/06 01:25:29;;;;;;;17.42;13.50;;;;;;;7.99;100.00;100546.78;10105132;28;20047;-75
2024/02/06 01:30:26;;;;;;;15.00;12.30;;;;;;;8.05;100.00;100561.88;10101244;28;20097;-76
2024/02/06 01:35:23;;;;;;;13.45;11.95;;;;;;;8.03;100.00;100558.69;10096694;28;20669;-75
2024/02/06 01:40:19;;;;;;;15.07;12.43;;;;;;;8.01;100.00;100593.56;10103751;28;20046;-75
2024/02/06 01:45:16;;;;;;;18.90;11.85;;;;;;;8.02;100.00;100551.59;10104921;28;20711;-76
2024/02/06 01:50:13;;;;;;;18.75;11.68;;;;;;;8.06;100.00;100539.00;10101655;28;20047;-76
2024/02/06 01:55:10;;;;;;;17.15;14.40;;;;;;;8.05;100.00;100534.66;10092823;28;20047;-76
2024/02/06 02:00:07;;;;;;;16.33;12.55;;;;;;;8.04;100.00;100538.50;10109362;28;20043;-77
2024/02/06 02:05:06;;;;;;;17.48;11.65;;;;;;;8.00;100.00;100559.28;10105169;28;20058;-77
2024/02/06 02:10:03;;;;;;;19.25;12.35;;;;;;;8.02;100.00;100524.38;10113511;28;20051;-76
2024/02/06 02:15:00;;;;;;;17.10;12.10;;;;;;;8.04;100.00;100522.16;10086597;28;20231;-76
2024/02/06 02:19:57;;;;;;;16.83;12.25;;;;;;;8.02;100.00;100510.78;10100824;28;20530;-76
2024/02/06 02:24:53;;;;;;;13.38;11.48;;;;;;;8.07;100.00;100512.56;10103074;28;20053;-75
2024/02/06 02:29:53;;;;;;;15.82;12.63;;;;;;;8.08;100.00;100515.00;10112218;28;20047;-75
2024/02/06 02:34:50;;;;;;;17.02;12.65;;;;;;;8.03;100.00;100512.41;10112552;28;20406;-76
2024/02/06 02:39:48;;;;;;;19.55;12.10;;;;;;;8.12;100.00;100490.66;10109507;28;20125;-74
2024/02/06 02:44:46;;;;;;;15.00;12.13;;;;;;;8.14;100.00;100483.81;10091926;28;20102;-75
2024/02/06 02:49:42;;;;;;;14.35;12.43;;;;;;;8.13;100.00;100482.19;10108612;28;20047;-77
2024/02/06 02:54:39;;;;;;;14.07;10.98;;;;;;;8.18;100.00;100495.69;10109487;28;20396;-77
2024/02/06 02:59:35;;;;;;;15.30;11.20;;;;;;;8.20;100.00;100482.59;10098304;28;20047;-77
2024/02/06 03:04:32;;;;;;;22.05;11.43;;;;;;;8.22;100.00;100463.22;10114950;28;20057;-76
2024/02/06 03:09:28;;;;;;;16.17;10.85;;;;;;;8.25;100.00;100456.34;10100252;28;20476;-77
2024/02/06 03:14:25;;;;;;;12.32;10.43;;;;;;;8.26;100.00;100457.94;10107759;28;20150;-76
2024/02/06 03:19:21;;;;;;;19.95;11.27;;;;;;;8.28;100.00;100444.81;10108572;28;20050;-76
2024/02/06 03:24:18;;;;;;;19.08;10.85;;;;;;;8.29;100.00;100451.91;10103301;28;20138;-76
2024/02/06 03:29:14;;;;;;;18.65;11.25;;;;;;;8.27;100.00;100433.13;10113546;28;20084;-76
2024/02/06 03:34:11;;;;;;;18.90;10.73;;;;;;;8.29;100.00;100438.28;10110997;28;20062;-77
2024/02/06 03:39:11;;;;;;;16.00;10.00;;;;;;;8.35;100.00;100428.84;10110044;28;20058;-75
2024/02/06 03:44:07;;;;;;;16.23;10.40;;;;;;;8.29;100.00;100424.66;10104067;28;20054;-76
2024/02/06 03:49:04;;;;;;;15.43;10.65;;;;;;;8.33;100.00;100420.19;10108653;28;20577;-75
2024/02/06 03:54:00;;;;;;;14.85;11.75;;;;;;;8.35;100.00;100426.13;10102453;28;20106;-75
2024/02/06 03:58:57;;;;;;;17.23;10.93;;;;;;;8.38;100.00;100422.81;10114598;28;20687;-74
2024/02/06 04:03:53;;;;;;;18.73;11.40;;;;;;;8.39;100.00;100425.19;10103135;28;20046;-74
2024/02/06 04:08:50;;;;;;;17.95;11.15;;;;;;;8.41;100.00;100422.22;10097413;28;20058;-76
2024/02/06 04:13:46;;;;;;;15.40;10.20;;;;;;;8.43;100.00;100417.25;10101394;28;20132;-76
2024/02/06 04:18:43;;;;;;;18.45;10.70;;;;;;;8.48;100.00;100427.22;10107568;28;20383;-74
2024/02/06 04:23:40;;;;;;;12.20;10.93;;;;;;;8.49;100.00;100418.72;10100292;28;20494;-75
2024/02/06 04:28:36;;;;;;;17.98;10.82;;;;;;;8.47;100.00;100415.53;10093745;28;20047;-75
2024/02/06 04:33:33;;;;;;;14.88;10.30;;;;;;;8.50;100.00;100412.16;10089511;28;20047;-74
2024/02/06 04:38:30;;;;;;;14.30;10.65;;;;;;;8.49;100.00;100399.66;10099698;28;20149;-74
2024/02/06 04:43:26;;;;;;;15.63;11.10;;;;;;;8.49;100.00;100407.81;10104765;28;20047;-76
2024/02/06 04:48:23;;;;;;;16.98;11.25;;;;;;;8.50;100.00;100387.66;10099285;28;20533;-75
2024/02/06 04:53:19;;;;;;;18.38;10.52;;;;;;;8.50;100.00;100373.22;10104039;28;20058;-74
2024/02/06 04:58:16;;;;;;;17.90;10.95;;;;;;;8.47;100.00;100371.94;10090228;28;20454;-74
2024/02/06 05:03:12;;;;;;;16.42;10.95;;;;;;;8.46;100.00;100381.22;10096948;28;20051;-74
2024/02/06 05:08:09;;;;;;;13.15;11.13;;;;;;;8.46;100.00;100370.31;10096176;28;20140;-75
2024/02/06 05:13:07;;;;;;;15.30;12.23;;;;;;;8.44;100.00;100356.19;10095484;28;20134;-75
2024/02/06 05:18:03;;;;;;;18.05;11.80;;;;;;;8.45;100.00;100346.91;10086476;28;20050;-74
2024/02/06 05:23:00;;;;;;;19.17;13.18;;;;;;;8.43;100.00;100347.22;10102432;28;20557;-74
2024/02/06 05:27:58;;;;;;;13.75;12.25;;;;;;;8.43;100.00;100343.69;10092354;28;20047;-75
2024/02/06 05:32:55;;;;;;;19.23;11.98;;;;;;;8.44;100.00;100345.28;10093727;28;20141;-74
2024/02/06 05:37:51;;;;;;;16.08;12.13;;;;;;;8.46;100.00;100359.41;10095910;28;20193;-77
2024/02/06 05:42:48;;;;;;;14.07;12.30;;;;;;;8.47;100.00;100332.97;10092642;28;20054;-75
2024/02/06 05:47:45;;;;;;;14.02;12.25;;;;;;;8.47;100.00;100333.78;10087921;28;20051;-75
2024/02/06 05:52:41;;;;;;;19.83;13.70;;;;;;;8.43;100.00;100321.91;10101487;28;20054;-74
2024/02/06 05:57:38;;;;;;;16.45;11.90;;;;;;;8.46;100.00;100315.03;10101153;28;20042;-73
2024/02/06 06:02:35;;;;;;;23.63;12.18;;;;;;;8.50;100.00;100284.09;10105311;28;20098;-76
2024/02/06 06:07:31;;;;;;;17.25;12.25;;;;;;;8.54;100.00;100306.91;10095310;28;20049;-73
2024/02/06 06:12:28;;;;;;;18.77;12.30;;;;;;;8.55;100.00;100286.69;10103537;28;20138;-75
2024/02/06 06:17:24;;;;;;;16.27;12.20;;;;;;;8.52;100.00;100292.78;10115194;28;20043;-73
2024/02/06 06:22:21;;;;;;;19.10;12.27;;;;;;;8.59;100.00;100274.03;10102191;28;20384;-72
2024/02/06 06:27:18;;;;;;;14.48;12.93;;;;;;;8.57;100.00;100289.91;10113838;28;20070;-72
2024/02/06 06:32:15;;;;;;;15.30;12.00;;;;;;;8.60;100.00;100275.63;10110125;28;20046;-73
2024/02/06 06:37:11;;;;;;;16.10;12.20;;;;;;;8.62;100.00;100262.50;10111277;28;20121;-72
2024/02/06 06:42:08;;;;;;;18.35;11.80;;;;;;;8.63;100.00;100260.56;10112462;28;20062;-73
2024/02/06 06:47:06;;;;;;;25.80;13.55;;;;;;;8.65;100.00;100269.25;10110703;28;20073;-74
2024/02/06 06:52:05;;;;;;;14.88;12.20;;;;;;;8.67;100.00;100277.13;10105210;28;20097;-73
2024/02/06 06:57:05;;;;;;;14.75;12.15;;;;;;;8.63;100.00;100266.84;10106597;28;20829;-72
2024/02/06 07:02:01;;;;;;;15.77;12.65;;;;;;;8.34;100.00;100256.44;10100778;28;20039;-72
2024/02/06 07:06:58;;;;;;;18.80;12.98;;;;;;;8.27;100.00;100245.19;10108426;28;20057;-73
2024/02/06 07:11:54;;;;;;;22.88;12.90;;;;;;;8.24;100.00;100243.09;10123884;28;20051;-72
2024/02/06 07:16:51;;;;;;;20.45;12.88;;;;;;;8.23;100.00;100230.59;10112626;28;20141;-72
2024/02/06 07:21:57;;;;;;;19.35;13.10;;;;;;;8.23;100.00;100225.94;10105201;28;20053;-72
2024/02/06 07:26:54;;;;;;;16.15;12.80;;;;;;;8.21;100.00;100214.59;10101717;28;20086;-72
2024/02/06 07:31:51;;;;;;;20.63;13.10;;;;;;;8.18;100.00;100209.75;10111325;28;20063;-72
2024/02/06 07:36:48;;;;;;;14.40;12.20;;;;;;;8.10;100.00;100199.63;10110645;28;20135;-74
2024/02/06 07:41:44;;;;;;;14.27;12.77;;;;;;;8.11;100.00;100184.09;10109024;28;20692;-73
2024/02/06 07:46:41;;;;;;;21.50;12.60;;;;;;;8.11;100.00;100184.09;10112640;28;20042;-72
2024/02/06 07:51:40;;;;;;;16.50;11.73;;;;;;;8.16;100.00;100183.94;10102197;28;20047;-74
2024/02/06 07:56:37;;;;;;;13.48;10.65;;;;;;;8.13;100.00;100166.31;10108494;28;20563;-72
2024/02/06 08:01:34;;;;;;;17.67;12.82;;;;;;;8.12;100.00;100164.72;10099964;28;20047;-72
2024/02/06 08:06:31;;;;;;;19.25;10.90;;;;;;;8.09;100.00;100154.44;10115383;28;20062;-72
2024/02/06 08:11:28;;;;;;;13.18;10.73;;;;;;;8.11;100.00;100154.94;10102079;28;20247;-74
2024/02/06 08:16:25;;;;;;;24.85;10.82;;;;;;;8.17;100.00;100155.63;10108468;28;20050;-72
2024/02/06 08:21:21;;;;;;;15.45;11.45;;;;;;;8.18;100.00;100152.56;10102099;28;20078;-73
2024/02/06 08:26:18;;;;;;;14.48;10.65;;;;;;;8.20;100.00;100128.53;10107728;28;20046;-72
2024/02/06 08:31:15;;;;;;;14.50;11.57;;;;;;;8.17;100.00;100110.13;10108290;28;20113;-76
2024/02/06 08:36:13;;;;;;;12.25;10.82;;;;;;;8.19;100.00;100105.16;10110774;28;20641;-73
2024/02/06 08:41:10;;;;;;;15.25;10.90;;;;;;;8.26;100.00;100114.75;10109438;28;20050;-74
2024/02/06 08:46:06;;;;;;;12.30;11.10;;;;;;;8.25;100.00;100105.00;10105982;28;20082;-73
2024/02/06 08:51:03;;;;;;;12.85;11.13;;;;;;;8.24;100.00;100090.59;10096788;28;20054;-72
2024/02/06 08:56:02;;;;;;;11.55;10.30;;;;;;;8.23;100.00;100106.09;10104540;28;20054;-76
2024/02/06 09:00:58;;;;;;;11.52;9.93;;;;;;;8.17;100.00;100079.38;10108641;28;20618;-72
2024/02/06 09:05:56;;;;;;;12.57;10.43;;;;;;;8.15;100.00;100076.94;10101634;28;20071;-73
2024/02/06 09:10:53;;;;;;;21.17;10.52;;;;;;;8.13;100.00;100062.84;10112605;28;20070;-77
2024/02/06 09:15:50;;;;;;;16.58;10.57;;;;;;;8.12;100.00;100061.25;10098469;28;20097;-72
2024/02/06 09:20:46;;;;;;;16.67;9.50;;;;;;;8.17;100.00;100052.13;10097469;28;20053;-74
2024/02/06 09:25:43;;;;;;;13.45;10.68;;;;;;;8.20;100.00;100041.38;10102139;28;20098;-72
2024/02/06 09:30:40;;;;;;;13.32;10.35;;;;;;;8.22;100.00;100038.34;10098228;28;20061;-73
2024/02/06 09:35:36;;;;;;;14.77;10.48;;;;;;;8.19;100.00;100045.25;10109910;28;20329;-72
2024/02/06 09:40:33;;;;;;;14.30;12.75;;;;;;;8.17;100.00;100025.69;10103611;28;20527;-73
2024/02/06 09:45:31;;;;;;;17.08;10.05;;;;;;;8.15;100.00;100017.03;10101605;28;20043;-73
2024/02/06 09:50:27;;;;;;;13.23;11.23;;;;;;;8.17;100.00;100014.81;10105314;28;20047;-73
2024/02/06 09:55:25;;;;;;;14.88;10.57;;;;;;;8.22;100.00;100001.03;10100183;28;20049;-73
2024/02/06 10:00:23;;;;;;;14.20;10.43;;;;;;;8.28;100.00;99998.94;10104664;28;20050;-73
2024/02/06 10:05:26;;;;;;;9.45;8.50;;;;;;;8.26;100.00;99989.47;10103953;28;20137;-73
2024/02/06 10:10:23;;;;;;;11.10;8.07;;;;;;;8.21;100.00;99952.31;10107052;28;20046;-73
2024/02/06 10:15:23;;;;;;;13.80;8.65;;;;;;;8.21;100.00;99965.94;10104215;28;20047;-74
2024/02/06 10:20:24;;;;;;;14.70;9.48;;;;;;;8.25;100.00;99939.66;10100088;28;20050;-73
2024/02/06 10:25:21;;;;;;;9.27;8.05;;;;;;;8.27;100.00;99939.34;10093466;28;23442;-73
2024/02/06 10:30:22;;;;;;;16.10;9.70;;;;;;;8.29;100.00;99923.50;10110484;28;20070;-74
2024/02/06 10:35:22;;;;;;;8.90;7.93;;;;;;;8.30;100.00;99925.09;10107179;28;20047;-74
2024/02/06 10:40:20;;;;;;;8.65;7.30;;;;;;;8.38;100.00;99910.69;10105156;28;20054;-74
2024/02/06 10:45:17;;;;;;;10.05;8.45;;;;;;;8.39;100.00;99890.47;10111420;28;20055;-73
2024/02/06 10:50:15;;;;;;;13.38;8.07;;;;;;;8.37;100.00;99881.81;10123982;28;20053;-73
2024/02/06 10:55:12;;;;;;;11.57;8.05;;;;;;;8.36;100.00;99880.22;10110962;28;20466;-74
2024/02/06 11:00:26;;;;;;;12.55;7.32;;;;;;;8.38;100.00;99872.53;10109856;28;20096;-75
2024/02/06 11:05:29;;;;;;;8.95;8.05;;;;;;;8.39;100.00;99857.78;10106165;28;20066;-75
2024/02/06 11:10:37;;;;;;;8.38;7.55;;;;;;;8.44;100.00;99844.00;10098869;28;20499;-78
2024/02/06 11:15:36;;;;;;;8.98;8.05;;;;;;;8.49;100.00;99840.31;10104299;28;20074;-74
2024/02/06 11:20:36;;;;;;;10.77;8.40;;;;;;;8.47;100.00;99853.47;10111082;28;20489;-73
2024/02/06 11:25:36;;;;;;;12.23;9.10;;;;;;;8.49;100.00;99835.66;10102643;28;20059;-76
2024/02/06 11:30:33;;;;;;;10.80;9.65;;;;;;;8.50;100.00;99831.03;10107965;28;20503;-74
2024/02/06 11:35:31;;;;;;;9.52;8.60;;;;;;;8.49;100.00;99834.88;10107102;28;20105;-74
2024/02/06 11:40:32;;;;;;;15.10;10.15;;;;;;;8.57;100.00;99807.59;10112091;28;20047;-74
2024/02/06 11:45:29;;;;;;;18.38;10.27;;;;;;;8.61;100.00;99808.56;10110162;28;20512;-74
2024/02/06 11:50:43;;;;;;;14.50;9.82;;;;;;;8.74;100.00;99863.16;10105212;28;20050;-73
2024/02/06 11:55:44;;;;;;;17.85;11.38;;;;;;;8.80;100.00;99834.63;10103200;28;20124;-73
2024/02/06 12:00:40;;;;;;;11.70;10.40;;;;;;;8.85;100.00;99853.50;10112058;28;20050;-73
2024/02/06 12:05:38;;;;;;;12.85;10.40;;;;;;;8.90;100.00;99866.94;10098082;28;20055;-72
2024/02/06 12:10:38;;;;;;;16.10;10.50;;;;;;;8.97;100.00;99878.13;10111706;28;20057;-72
2024/02/06 12:15:37;;;;;;;14.77;12.10;;;;;;;9.04;100.00;99905.69;10102283;28;20066;-73
2024/02/06 12:20:35;;;;;;;16.23;11.52;;;;;;;9.14;100.00;99901.00;10102066;28;20043;-73
2024/02/06 12:25:33;;;;;;;20.80;11.32;;;;;;;9.20;100.00;99927.78;10107491;28;20047;-73
2024/02/06 12:30:30;;;;;;;16.10;11.77;;;;;;;9.26;100.00;99901.13;10103760;28;20066;-72
2024/02/06 12:35:28;;;;;;;12.02;10.82;;;;;;;9.37;100.00;99913.25;10102366;28;20062;-73
2024/02/06 12:40:28;;;;;;;11.45;10.30;;;;;;;9.39;100.00;99932.81;10104886;28;20053;-74
2024/02/06 12:45:27;;;;;;;16.70;10.50;;;;;;;9.44;100.00;99940.81;10104016;28;20047;-73
2024/02/06 12:50:24;;;;;;;13.25;11.52;;;;;;;9.42;100.00;99932.19;10102299;28;20106;-73
2024/02/06 12:55:21;;;;;;;13.30;11.98;;;;;;;9.39;100.00;99921.91;10103495;28;20054;-72
2024/02/06 13:00:18;;;;;;;15.45;10.00;;;;;;;9.26;100.00;99922.94;10102424;28;20078;-72
2024/02/06 13:05:18;;;;;;;13.73;10.98;;;;;;;9.27;100.00;99913.63;10111723;28;20050;-72
2024/02/06 13:10:16;;;;;;;15.13;10.90;;;;;;;9.29;100.00;99895.00;10104047;28;20141;-73
2024/02/06 13:15:17;;;;;;;14.00;9.25;;;;;;;9.43;100.00;99906.47;10111118;28;20059;-72
2024/02/06 13:20:14;;;;;;;11.93;10.20;;;;;;;9.43;100.00;99884.66;10110973;28;20047;-72
2024/02/06 13:25:10;;;;;;;12.48;10.02;;;;;;;9.46;100.00;99900.34;10105226;28;20055;-74
2024/02/06 13:30:08;;;;;;;14.93;10.35;;;;;;;9.53;100.00;99875.28;10105343;28;20055;-73
2024/02/06 13:35:05;;;;;;;16.40;10.48;;;;;;;9.56;100.00;99871.06;10087390;28;20054;-73
2024/02/06 13:40:03;;;;;;;16.33;10.65;;;;;;;9.63;100.00;99860.44;10107822;28;20064;-72
2024/02/06 13:44:59;;;;;;;13.10;10.13;;;;;;;9.65;100.00;99847.25;10096904;28;20138;-75
2024/02/06 13:49:56;;;;;;;15.85;10.75;;;;;;;9.70;100.00;99841.63;10101241;28;20047;-74
2024/02/06 13:54:53;;;;;;;14.48;11.20;;;;;;;9.72;100.00;99841.28;10097391;28;20047;-74
2024/02/06 13:59:49;;;;;;;14.02;11.20;;;;;;;9.69;100.00;99834.53;10106887;28;20121;-74
2024/02/06 14:04:46;;;;;;;13.40;10.85;;;;;;;9.65;100.00;99830.88;10108410;28;20047;-76
2024/02/06 14:09:43;;;;;;;15.32;11.00;;;;;;;9.70;100.00;99817.06;10106218;28;20101;-74
2024/02/06 14:14:39;;;;;;;13.23;11.95;;;;;;;9.51;100.00;99797.59;10103763;28;20039;-74
2024/02/06 14:19:36;;;;;;;15.73;11.35;;;;;;;9.46;100.00;99791.22;10094835;28;20046;-75
2024/02/06 14:24:32;;;;;;;16.40;11.75;;;;;;;9.37;100.00;99786.94;10109124;28;20047;-73
2024/02/06 14:29:29;;;;;;;18.52;12.55;;;;;;;9.27;100.00;99782.69;10111411;28;20085;-73
2024/02/06 14:34:25;;;;;;;19.83;12.63;;;;;;;9.11;100.00;99768.03;10115166;28;20058;-73
2024/02/06 14:39:22;;;;;;;18.65;11.23;;;;;;;9.05;100.00;99764.69;10115129;28;20101;-72
2024/02/06 14:44:18;;;;;;;11.52;8.73;;;;;;;8.99;100.00;99734.13;10110650;28;20073;-73
2024/02/06 14:49:32;;;;;;;14.75;8.98;;;;;;;8.96;100.00;99702.06;10111171;28;20038;-73
2024/02/06 14:54:28;;;;;;;15.38;8.77;;;;;;;8.88;100.00;99681.09;10106589;28;20156;-74
2024/02/06 14:59:25;;;;;;;12.05;8.45;;;;;;;8.86;100.00;99683.34;10112467;28;20109;-73
2024/02/06 15:04:22;;;;;;;20.00;9.25;;;;;;;8.82;100.00;99652.47;10099034;28;20040;-72
2024/02/06 15:09:19;;;;;;;18.45;8.35;;;;;;;8.78;100.00;99624.28;10109608;28;20047;-73
2024/02/06 15:14:16;;;;;;;19.50;8.10;;;;;;;8.72;100.00;99599.13;10111174;28;20061;-72
2024/02/06 15:19:12;;;;;;;14.05;7.68;;;;;;;8.71;100.00;99591.31;10104515;28;20109;-72
2024/02/06 15:24:09;;;;;;;16.25;7.05;;;;;;;8.70;100.00;99557.00;10100676;28;20418;-71
2024/02/06 15:29:06;;;;;;;18.13;7.88;;;;;;;8.69;100.00;99567.09;10102924;28;20426;-71
2024/02/06 15:34:03;;;;;;;13.25;6.22;;;;;;;8.67;100.00;99542.09;10116833;28;20506;-71
2024/02/06 15:38:59;;;;;;;16.02;7.07;;;;;;;8.67;100.00;99524.97;10113364;28;20770;-71
2024/02/06 15:43:56;;;;;;;14.57;7.05;;;;;;;8.64;100.00;99505.44;10108805;28;20454;-72
2024/02/06 15:48:53;;;;;;;16.85;7.43;;;;;;;8.61;100.00;99495.22;10118453;28;20570;-71
2024/02/06 15:53:50;;;;;;;14.77;6.82;;;;;;;8.66;100.00;99498.84;10109715;28;20047;-72
2024/02/06 15:58:46;;;;;;;14.07;6.20;;;;;;;8.61;100.00;99495.22;10091117;28;20633;-72
2024/02/06 16:03:43;;;;;;;13.98;6.80;;;;;;;8.61;100.00;99476.13;10100061;28;20062;-72
2024/02/06 16:08:40;;;;;;;14.13;6.00;;;;;;;8.62;100.00;99469.53;10114983;28;20038;-72
2024/02/06 16:13:38;;;;;;;12.90;5.95;;;;;;;8.61;100.00;99457.06;10105387;28;20054;-72
2024/02/06 16:18:35;;;;;;;14.73;6.68;;;;;;;8.61;100.00;99467.97;10109346;28;20076;-72
2024/02/06 16:23:31;;;;;;;8.40;6.20;;;;;;;8.59;100.00;99453.09;10108503;28;20046;-72
2024/02/06 16:28:28;;;;;;;11.93;6.00;;;;;;;8.58;100.00;99456.91;10103574;28;20739;-72
2024/02/06 16:33:25;;;;;;;14.50;7.15;;;;;;;8.56;100.00;99454.56;10106133;28;20047;-72
2024/02/06 16:38:22;;;;;;;9.20;5.85;;;;;;;8.54;100.00;99448.63;10110976;28;20073;-73
2024/02/06 16:43:18;;;;;;;8.23;5.20;;;;;;;8.52;100.00;99458.28;10100168;28;20078;-73
2024/02/06 16:48:15;;;;;;;6.72;5.35;;;;;;;8.51;100.00;99452.00;10100466;28;20047;-72
2024/02/06 16:53:13;;;;;;;8.63;5.88;;;;;;;8.51;100.00;99489.34;10090817;28;20061;-73
2024/02/06 16:58:10;;;;;;;9.73;5.97;;;;;;;8.48;100.00;99465.53;10108694;28;20511;-72
2024/02/06 17:03:06;;;;;;;8.35;5.75;;;;;;;8.47;100.00;99474.81;10103247;28;20089;-73
2024/02/06 17:08:07;;;;;;;8.07;5.22;;;;;;;8.46;100.00;99471.28;10108062;28;20430;-73
2024/02/06 17:13:04;;;;;;;9.48;5.55;;;;;;;8.46;100.00;99444.06;10091540;28;20046;-74
2024/02/06 17:18:00;;;;;;;9.35;5.63;;;;;;;8.44;100.00;99446.31;10088302;28;20074;-73
2024/02/06 17:22:57;;;;;;;9.77;5.03;;;;;;;8.46;100.00;99437.81;10095520;28;20503;-72
2024/02/06 17:27:53;;;;;;;6.28;5.30;;;;;;;8.43;100.00;99444.72;10098921;28;20142;-72
2024/02/06 17:32:50;;;;;;;8.07;5.40;;;;;;;8.41;100.00;99431.44;10104285;28;20565;-72
2024/02/06 17:37:47;;;;;;;7.95;5.00;;;;;;;8.44;100.00;99440.88;10104086;28;20458;-73
2024/02/06 17:42:43;;;;;;;6.97;5.55;;;;;;;8.46;100.00;99438.59;10101500;28;20134;-72
2024/02/06 17:47:40;;;;;;;7.32;5.30;;;;;;;8.41;100.00;99427.91;10096737;28;20055;-72
2024/02/06 17:52:36;;;;;;;9.15;5.13;;;;;;;8.45;100.00;99409.78;10099587;28;20057;-72
2024/02/06 17:57:33;;;;;;;8.77;6.35;;;;;;;8.44;100.00;99408.19;10113367;28;20051;-71
2024/02/06 18:02:30;;;;;;;7.43;5.07;;;;;;;8.46;100.00;99397.75;10112141;28;20050;-71
2024/02/06 18:07:49;;;;;;;12.55;5.85;;;;;;;8.46;100.00;99394.22;10115873;28;20039;-72
2024/02/06 18:12:46;;;;;;;11.70;6.57;;;;;;;8.44;100.00;99386.38;10102331;28;20407;-72
2024/02/06 18:17:42;;;;;;;13.65;6.05;;;;;;;8.42;100.00;99388.66;10106799;28;20079;-72
2024/02/06 18:22:39;;;;;;;16.20;6.35;;;;;;;8.42;100.00;99381.28;10105439;28;20051;-71
2024/02/06 18:27:35;;;;;;;19.42;6.70;;;;;;;8.44;100.00;99394.56;10108424;28;20095;-72
2024/02/06 18:32:32;;;;;;;13.90;6.75;;;;;;;8.42;100.00;99388.66;10117096;28;20050;-72
2024/02/06 18:37:28;;;;;;;15.38;6.60;;;;;;;8.44;100.00;99372.75;10104617;28;20055;-71
2024/02/06 18:42:25;;;;;;;14.48;6.53;;;;;;;8.43;100.00;99357.56;10104121;28;20411;-71
2024/02/06 18:47:22;;;;;;;13.57;6.47;;;;;;;8.42;100.00;99380.47;10094511;28;20098;-71
2024/02/06 18:52:18;;;;;;;12.63;5.53;;;;;;;8.39;100.00;99362.84;10099207;28;20129;-71
2024/02/06 18:57:15;;;;;;;12.48;5.72;;;;;;;8.36;100.00;99357.28;10109865;28;20446;-71
2024/02/06 19:02:12;;;;;;;9.63;5.70;;;;;;;8.39;100.00;99362.06;10094957;28;20125;-72
2024/02/06 19:07:08;;;;;;;10.57;5.20;;;;;;;8.40;100.00;99352.78;10106353;28;20078;-71
2024/02/06 19:12:05;;;;;;;12.48;6.13;;;;;;;8.39;100.00;99359.34;10097132;28;20046;-73
2024/02/06 19:17:02;;;;;;;8.45;4.93;;;;;;;7.91;100.00;99455.97;10105927;28;20466;-73
2024/02/06 19:21:58;;;;;;;2.25;0.50;;;;;;;6.49;100.00;99499.50;10102442;28;20039;-73
2024/02/06 19:26:55;;;;;;;4.07;0.80;;;;;;;6.16;100.00;99492.94;10109092;28;20050;-72
2024/02/06 19:31:52;;;;;;;5.15;0.90;;;;;;;6.01;100.00;99494.19;10111404;28;20089;-73
2024/02/06 19:36:49;;;;;;;3.95;1.10;;;;;;;6.05;100.00;99476.97;10098201;28;20046;-73
2024/02/06 19:41:46;;;;;;;3.90;1.10;;;;;;;5.84;100.00;99481.38;10093899;28;20046;-73
2024/02/06 19:46:42;;;;;;;3.20;1.00;;;;;;;5.44;100.00;99489.56;10094436;28;20711;-75
2024/02/06 19:51:39;;;;;;;2.75;0.63;;;;;;;5.30;100.00;99511.34;10100865;28;20144;-73
2024/02/06 19:56:39;;;;;;;6.55;0.77;;;;;;;5.26;100.00;99492.19;10096730;28;20047;-71
2024/02/06 20:01:35;;;;;;;7.63;1.10;;;;;;;5.19;100.00;99478.28;10102692;28;20499;-73
2024/02/06 20:06:32;;;;;;;2.50;0.82;;;;;;;5.11;100.00;99487.19;10093766;28;20050;-73
2024/02/06 20:11:32;;;;;;;3.13;0.40;;;;;;;5.00;100.00;99507.53;10110162;28;20058;-74
2024/02/06 20:16:30;;;;;;;7.38;0.68;;;;;;;4.90;100.00;99503.16;10088552;28;20064;-71
2024/02/06 20:21:27;;;;;;;4.38;0.63;;;;;;;4.89;100.00;99512.38;10109613;28;20043;-71
2024/02/06 20:26:24;;;;;;;8.25;1.25;;;;;;;4.74;100.00;99524.41;10091279;28;20094;-72
2024/02/06 20:31:21;;;;;;;3.42;0.38;;;;;;;4.69;100.00;99524.53;10103015;28;20562;-71
2024/02/06 20:36:20;;;;;;;1.67;0.40;;;;;;;4.56;100.00;99526.19;10097592;28;20078;-73
2024/02/06 20:41:18;;;;;;;6.47;0.65;;;;;;;4.49;100.00;99519.59;10117062;28;20107;-71
2024/02/06 20:46:14;;;;;;;2.03;0.70;;;;;;;4.34;100.00;99540.50;10091713;28;20042;-71
2024/02/06 20:51:11;;;;;;;4.45;0.80;;;;;;;4.37;100.00;99534.47;10089382;28;20086;-70
2024/02/06 20:56:07;;;;;;;4.18;0.85;;;;;;;4.33;100.00;99538.88;10101108;28;20054;-74
2024/02/06 21:01:04;;;;;;;7.57;1.20;;;;;;;4.34;100.00;99569.44;10094351;28;20054;-69
2024/02/06 21:06:01;;;;;;;5.88;1.02;;;;;;;4.29;100.00;99564.94;10099058;28;20055;-72
2024/02/06 21:10:58;;;;;;;5.97;1.23;;;;;;;4.27;100.00;99561.75;10101181;28;20039;-72
2024/02/06 21:15:54;;;;;;;3.67;1.63;;;;;;;4.27;100.00;99599.66;10102064;28;20066;-74
2024/02/06 21:20:51;;;;;;;11.38;3.00;;;;;;;4.28;100.00;99603.94;10106728;28;20043;-73
2024/02/06 21:25:47;;;;;;;10.93;3.33;;;;;;;4.26;100.00;99619.69;10103895;28;20070;-72
2024/02/06 21:30:44;;;;;;;13.85;3.35;;;;;;;4.31;100.00;99638.50;10102197;28;20039;-73
2024/02/06 21:35:41;;;;;;;6.40;3.60;;;;;;;4.32;100.00;99645.53;10099448;28;20046;-72
2024/02/06 21:40:37;;;;;;;11.45;3.85;;;;;;;4.29;100.00;99646.13;10105415;28;20047;-72
2024/02/06 21:45:34;;;;;;;8.02;3.67;;;;;;;4.22;100.00;99645.72;10100134;28;20054;-72
2024/02/06 21:50:32;;;;;;;16.30;3.78;;;;;;;4.16;100.00;99652.38;10100450;28;20050;-76
2024/02/06 21:55:30;;;;;;;7.80;3.65;;;;;;;4.06;100.00;99644.44;10099437;28;20126;-73
2024/02/06 22:00:27;;;;;;;8.88;4.38;;;;;;;4.08;100.00;99629.50;10097899;28;20055;-74
2024/02/06 22:05:23;;;;;;;8.35;4.07;;;;;;;4.07;100.00;99610.88;10105987;28;20569;-73
2024/02/06 22:10:20;;;;;;;10.15;4.63;;;;;;;4.05;100.00;99632.81;10102521;28;20123;-71
2024/02/06 22:15:17;;;;;;;12.32;4.80;;;;;;;4.05;100.00;99629.31;10100161;28;20047;-72
2024/02/06 22:20:13;;;;;;;12.35;4.97;;;;;;;4.10;100.00;99615.69;10088561;28;20134;-76
2024/02/06 22:25:10;;;;;;;7.43;4.80;;;;;;;4.11;100.00;99622.72;10087612;28;20069;-75
2024/02/06 22:30:10;;;;;;;7.35;5.45;;;;;;;4.13;100.00;99642.13;10095990;28;20050;-75
2024/02/06 22:35:07;;;;;;;12.43;5.75;;;;;;;4.13;100.00;99663.75;10101430;28;20050;-75